createdAt,value
2019-03-18T00:00:46.486Z,94.32
2019-03-18T00:01:46.459Z,94.42
2019-03-18T00:02:46.430Z,94.42
2019-03-18T00:03:46.401Z,94.42
2019-03-18T00:04:46.372Z,94.32
2019-03-18T00:05:46.345Z,94.13
2019-03-18T00:06:46.315Z,93.94
2019-03-18T00:07:46.287Z,94.13
2019-03-18T00:08:46.258Z,94.13
2019-03-18T00:09:46.232Z,94.23
2019-03-18T00:10:46.201Z,94.13
2019-03-18T00:11:46.174Z,94.04
2019-03-18T00:12:46.143Z,94.13
2019-03-18T00:13:46.114Z,94.23
2019-03-18T00:14:46.087Z,94.23
2019-03-18T00:15:46.059Z,94.13
2019-03-18T00:16:46.029Z,94.23
2019-03-18T00:17:46.000Z,94.13
2019-03-18T00:18:45.973Z,94.04
2019-03-18T00:19:45.948Z,93.94
2019-03-18T00:20:45.919Z,93.84
2019-03-18T00:21:45.889Z,93.84
2019-03-18T00:22:45.861Z,93.94
2019-03-18T00:23:45.830Z,93.75
2019-03-18T00:24:45.799Z,93.75
2019-03-18T00:25:45.775Z,93.94
2019-03-18T00:26:45.761Z,93.94
2019-03-18T00:27:45.715Z,93.65
2019-03-18T00:28:45.688Z,93.84
2019-03-18T00:29:45.658Z,93.65
2019-03-18T00:30:45.630Z,93.75
2019-03-18T00:31:45.601Z,93.94
2019-03-18T00:32:45.575Z,93.56
2019-03-18T00:33:45.544Z,94.04
2019-03-18T00:34:45.516Z,94.13
2019-03-18T00:35:45.487Z,93.84
2019-03-18T00:36:45.456Z,94.23
2019-03-18T00:37:45.430Z,94.13
2019-03-18T00:38:45.405Z,94.04
2019-03-18T00:39:45.374Z,93.94
2019-03-18T00:40:45.343Z,93.75
2019-03-18T00:41:45.315Z,94.32
2019-03-18T00:42:45.291Z,94.51
2019-03-18T00:43:45.265Z,94.23
2019-03-18T00:44:45.235Z,94.42
2019-03-18T00:45:45.211Z,94.04
2019-03-18T00:46:45.174Z,94.70
2019-03-18T00:47:45.147Z,94.32
2019-03-18T00:48:45.118Z,94.32
2019-03-18T00:49:45.089Z,93.94
2019-03-18T00:50:45.125Z,94.04
2019-03-18T00:51:45.034Z,93.94
2019-03-18T00:52:45.027Z,94.13
2019-03-18T00:53:45.039Z,94.51
2019-03-18T00:54:44.948Z,93.94
2019-03-18T00:55:44.977Z,93.94
2019-03-18T00:56:44.892Z,93.84
2019-03-18T00:57:44.864Z,93.94
2019-03-18T00:58:44.840Z,93.84
2019-03-18T00:59:44.808Z,93.75
2019-03-18T01:00:44.779Z,93.84
2019-03-18T01:01:44.751Z,94.04
2019-03-18T01:02:44.723Z,93.94
2019-03-18T01:03:44.700Z,93.84
2019-03-18T01:04:44.672Z,93.75
2019-03-18T01:05:44.638Z,93.94
2019-03-18T01:06:44.610Z,93.84
2019-03-18T01:07:44.582Z,93.80
2019-03-18T01:08:44.553Z,93.80
2019-03-18T01:09:44.527Z,93.51
2019-03-18T01:10:44.497Z,92.94
2019-03-18T01:11:45.272Z,92.85
2019-03-18T01:12:44.439Z,93.04
2019-03-18T01:13:44.412Z,92.94
2019-03-18T01:14:44.383Z,93.13
2019-03-18T01:15:44.357Z,92.94
2019-03-18T01:16:44.326Z,92.94
2019-03-18T01:17:44.304Z,93.04
2019-03-18T01:18:44.273Z,92.94
2019-03-18T01:19:44.242Z,92.85
2019-03-18T01:20:44.212Z,93.56
2019-03-18T01:21:44.184Z,93.27
2019-03-18T01:22:44.156Z,93.37
2019-03-18T01:23:44.128Z,92.99
2019-03-18T01:24:44.098Z,93.08
2019-03-18T01:25:44.071Z,93.18
2019-03-18T01:26:44.043Z,93.46
2019-03-18T01:27:44.017Z,93.46
2019-03-18T01:28:43.986Z,93.56
2019-03-18T01:29:43.958Z,93.56
2019-03-18T01:30:43.930Z,93.37
2019-03-18T01:31:43.902Z,93.08
2019-03-18T01:32:43.872Z,93.27
2019-03-18T01:33:45.395Z,93.27
2019-03-18T01:34:43.816Z,93.46
2019-03-18T01:35:43.789Z,93.46
2019-03-18T01:36:43.761Z,93.56
2019-03-18T01:37:43.730Z,93.37
2019-03-18T01:38:43.701Z,93.65
2019-03-18T01:39:43.675Z,93.75
2019-03-18T01:40:43.645Z,93.46
2019-03-18T01:41:43.618Z,93.37
2019-03-18T01:42:43.609Z,93.56
2019-03-18T01:43:43.560Z,93.46
2019-03-18T01:44:43.532Z,94.13
2019-03-18T01:45:43.505Z,93.65
2019-03-18T01:46:43.476Z,93.18
2019-03-18T01:47:43.448Z,93.27
2019-03-18T01:48:43.418Z,94.04
2019-03-18T01:49:43.392Z,93.75
2019-03-18T01:50:43.363Z,93.37
2019-03-18T01:51:43.335Z,93.37
2019-03-18T01:52:43.305Z,94.13
2019-03-18T01:53:43.276Z,93.65
2019-03-18T01:54:43.252Z,93.37
2019-03-18T01:55:43.246Z,93.08
2019-03-18T01:56:43.192Z,93.94
2019-03-18T01:57:43.163Z,94.04
2019-03-18T01:58:43.135Z,93.56
2019-03-18T01:59:43.108Z,93.46
2019-03-18T02:00:43.878Z,93.18
2019-03-18T02:01:43.050Z,93.75
2019-03-18T02:02:43.023Z,93.27
2019-03-18T02:03:42.995Z,93.46
2019-03-18T02:04:42.967Z,93.18
2019-03-18T02:05:42.937Z,93.37
2019-03-18T02:06:42.911Z,93.65
2019-03-18T02:07:42.882Z,93.18
2019-03-18T02:08:42.851Z,93.75
2019-03-18T02:09:42.824Z,93.37
2019-03-18T02:10:42.800Z,93.08
2019-03-18T02:11:42.767Z,93.37
2019-03-18T02:12:42.739Z,92.99
2019-03-18T02:13:42.710Z,92.80
2019-03-18T02:14:42.682Z,92.71
2019-03-18T02:15:52.772Z,93.18
2019-03-18T02:16:42.628Z,92.99
2019-03-18T02:17:42.600Z,92.90
2019-03-18T02:18:42.569Z,93.18
2019-03-18T02:19:42.543Z,92.71
2019-03-18T02:20:42.513Z,92.80
2019-03-18T02:21:42.483Z,92.71
2019-03-18T02:22:43.210Z,92.80
2019-03-18T02:23:42.431Z,93.08
2019-03-18T02:24:42.400Z,92.90
2019-03-18T02:25:42.371Z,92.80
2019-03-18T02:26:42.344Z,92.80
2019-03-18T02:27:42.316Z,92.99
2019-03-18T02:28:42.287Z,92.90
2019-03-18T02:29:42.262Z,93.08
2019-03-18T02:30:42.233Z,92.80
2019-03-18T02:31:42.226Z,92.42
2019-03-18T02:32:42.181Z,91.85
2019-03-18T02:33:45.900Z,92.23
2019-03-18T02:34:42.131Z,92.90
2019-03-18T02:35:42.096Z,93.65
2019-03-18T02:36:42.065Z,92.33
2019-03-18T02:37:42.050Z,92.71
2019-03-18T02:38:42.005Z,92.80
2019-03-18T02:39:42.729Z,92.61
2019-03-18T02:40:41.953Z,92.14
2019-03-18T02:41:41.946Z,92.14
2019-03-18T02:42:41.895Z,92.90
2019-03-18T02:43:41.867Z,92.04
2019-03-18T02:44:41.837Z,91.47
2019-03-18T02:45:41.808Z,91.76
2019-03-18T02:46:41.781Z,91.57
2019-03-18T02:47:41.754Z,91.57
2019-03-18T02:48:41.724Z,91.76
2019-03-18T02:49:41.707Z,92.71
2019-03-18T02:50:41.668Z,92.04
2019-03-18T02:51:41.644Z,91.66
2019-03-18T02:52:41.618Z,91.66
2019-03-18T02:53:41.594Z,91.76
2019-03-18T02:54:41.646Z,91.76
2019-03-18T02:55:41.534Z,91.47
2019-03-18T02:56:41.501Z,91.76
2019-03-18T02:57:41.473Z,91.85
2019-03-18T02:58:41.447Z,91.76
2019-03-18T02:59:41.417Z,91.47
2019-03-18T03:00:41.387Z,91.57
2019-03-18T03:01:41.359Z,91.57
2019-03-18T03:02:41.336Z,91.38
2019-03-18T03:03:41.306Z,91.19
2019-03-18T03:04:41.281Z,91.38
2019-03-18T03:05:42.752Z,91.19
2019-03-18T03:06:41.222Z,91.57
2019-03-18T03:07:41.194Z,92.42
2019-03-18T03:08:41.164Z,93.46
2019-03-18T03:09:41.139Z,93.27
2019-03-18T03:10:41.111Z,93.08
2019-03-18T03:11:41.133Z,92.61
2019-03-18T03:12:41.054Z,93.27
2019-03-18T03:13:41.026Z,93.37
2019-03-18T03:14:41.007Z,92.61
2019-03-18T03:15:40.971Z,92.42
2019-03-18T03:16:40.943Z,91.85
2019-03-18T03:17:40.924Z,92.23
2019-03-18T03:18:40.885Z,92.71
2019-03-18T03:19:40.858Z,92.04
2019-03-18T03:20:40.831Z,92.71
2019-03-18T03:21:40.802Z,92.33
2019-03-18T03:22:40.781Z,91.66
2019-03-18T03:23:40.745Z,92.04
2019-03-18T03:24:40.716Z,91.85
2019-03-18T03:25:40.693Z,92.04
2019-03-18T03:26:40.671Z,91.57
2019-03-18T03:27:40.638Z,91.95
2019-03-18T03:28:40.606Z,91.85
2019-03-18T03:29:40.578Z,91.95
2019-03-18T03:30:40.550Z,92.23
2019-03-18T03:31:40.533Z,92.04
2019-03-18T03:32:40.494Z,92.04
2019-03-18T03:33:40.497Z,91.76
2019-03-18T03:34:40.438Z,91.57
2019-03-18T03:35:40.411Z,91.47
2019-03-18T03:36:40.381Z,91.76
2019-03-18T03:37:40.496Z,91.19
2019-03-18T03:38:40.325Z,91.09
2019-03-18T03:39:40.297Z,91.66
2019-03-18T03:40:40.277Z,91.38
2019-03-18T03:41:40.253Z,91.47
2019-03-18T03:42:40.229Z,91.38
2019-03-18T03:43:40.185Z,90.81
2019-03-18T03:44:40.162Z,91.00
2019-03-18T03:45:40.128Z,91.09
2019-03-18T03:46:43.457Z,91.00
2019-03-18T03:47:40.090Z,91.19
2019-03-18T03:48:40.042Z,91.19
2019-03-18T03:49:40.015Z,91.38
2019-03-18T03:50:39.986Z,90.91
2019-03-18T03:51:40.035Z,90.34
2019-03-18T03:52:39.931Z,90.91
2019-03-18T03:53:39.902Z,90.24
2019-03-18T03:54:39.875Z,90.24
2019-03-18T03:55:39.847Z,89.96
2019-03-18T03:56:39.820Z,89.77
2019-03-18T03:57:39.796Z,89.67
2019-03-18T03:58:39.762Z,90.53
2019-03-18T03:59:39.733Z,89.39
2019-03-18T04:00:39.706Z,89.20
2019-03-18T04:01:39.675Z,89.20
2019-03-18T04:02:39.657Z,89.20
2019-03-18T04:03:39.627Z,90.15
2019-03-18T04:04:39.596Z,89.39
2019-03-18T04:05:39.568Z,88.92
2019-03-18T04:06:39.536Z,89.01
2019-03-18T04:07:39.509Z,89.11
2019-03-18T04:08:39.482Z,88.92
2019-03-18T04:09:39.473Z,89.58
2019-03-18T04:10:39.421Z,89.39
2019-03-18T04:11:39.408Z,89.01
2019-03-18T04:12:39.365Z,88.35
2019-03-18T04:13:39.338Z,88.73
2019-03-18T04:14:39.307Z,89.67
2019-03-18T04:15:39.281Z,89.11
2019-03-18T04:16:39.251Z,88.92
2019-03-18T04:17:39.225Z,88.92
2019-03-18T04:18:39.198Z,88.92
2019-03-18T04:19:39.168Z,88.92
2019-03-18T04:20:39.138Z,88.82
2019-03-18T04:21:39.111Z,88.35
2019-03-18T04:22:39.086Z,88.25
2019-03-18T04:23:39.056Z,88.16
2019-03-18T04:24:39.029Z,88.11
2019-03-18T04:25:39.105Z,88.06
2019-03-18T04:26:38.986Z,88.16
2019-03-18T04:27:38.942Z,88.06
2019-03-18T04:28:38.913Z,87.97
2019-03-18T04:29:38.886Z,88.35
2019-03-18T04:30:38.857Z,88.16
2019-03-18T04:31:38.829Z,88.63
2019-03-18T04:32:38.801Z,88.54
2019-03-18T04:33:39.264Z,88.63
2019-03-18T04:34:38.743Z,88.82
2019-03-18T04:35:38.718Z,88.54
2019-03-18T04:36:38.741Z,88.92
2019-03-18T04:37:38.660Z,88.63
2019-03-18T04:38:38.632Z,88.44
2019-03-18T04:39:38.603Z,88.35
2019-03-18T04:40:38.574Z,88.73
2019-03-18T04:41:38.547Z,89.25
2019-03-18T04:42:38.519Z,88.49
2019-03-18T04:43:38.490Z,87.92
2019-03-18T04:44:38.459Z,88.21
2019-03-18T04:45:38.436Z,87.92
2019-03-18T04:46:38.402Z,88.11
2019-03-18T04:47:38.398Z,88.21
2019-03-18T04:48:38.348Z,88.02
2019-03-18T04:49:38.320Z,87.83
2019-03-18T04:50:38.290Z,87.92
2019-03-18T04:51:38.262Z,87.64
2019-03-18T04:52:38.242Z,88.02
2019-03-18T04:53:38.204Z,87.92
2019-03-18T04:54:38.176Z,87.73
2019-03-18T04:55:38.148Z,87.64
2019-03-18T04:56:38.119Z,87.45
2019-03-18T04:57:38.092Z,87.35
2019-03-18T04:58:38.063Z,87.54
2019-03-18T04:59:38.034Z,88.11
2019-03-18T05:00:38.005Z,87.54
2019-03-18T05:01:37.976Z,87.26
2019-03-18T05:02:37.948Z,87.45
2019-03-18T05:03:37.922Z,87.73
2019-03-18T05:04:37.891Z,87.64
2019-03-18T05:05:37.864Z,87.54
2019-03-18T05:06:37.835Z,87.54
2019-03-18T05:07:37.806Z,87.45
2019-03-18T05:08:37.778Z,87.83
2019-03-18T05:09:37.748Z,87.92
2019-03-18T05:10:37.721Z,87.73
2019-03-18T05:11:37.694Z,87.92
2019-03-18T05:12:37.662Z,88.21
2019-03-18T05:13:37.639Z,88.59
2019-03-18T05:14:37.609Z,89.15
2019-03-18T05:15:37.577Z,89.63
2019-03-18T05:16:37.548Z,89.06
2019-03-18T05:17:37.522Z,89.15
2019-03-18T05:18:37.498Z,89.06
2019-03-18T05:19:37.463Z,88.96
2019-03-18T05:20:37.433Z,89.06
2019-03-18T05:21:37.411Z,88.87
2019-03-18T05:22:37.377Z,88.30
2019-03-18T05:23:37.347Z,89.06
2019-03-18T05:24:38.119Z,88.68
2019-03-18T05:25:37.291Z,88.68
2019-03-18T05:26:37.261Z,88.68
2019-03-18T05:27:37.233Z,88.11
2019-03-18T05:28:37.203Z,87.73
2019-03-18T05:29:37.176Z,87.92
2019-03-18T05:30:37.146Z,88.49
2019-03-18T05:31:37.117Z,87.83
2019-03-18T05:32:37.088Z,87.26
2019-03-18T05:33:37.060Z,86.98
2019-03-18T05:34:37.034Z,86.79
2019-03-18T05:35:37.002Z,87.16
2019-03-18T05:36:36.973Z,87.07
2019-03-18T05:37:36.948Z,87.07
2019-03-18T05:38:36.915Z,87.26
2019-03-18T05:39:36.886Z,86.98
2019-03-18T05:40:36.855Z,86.69
2019-03-18T05:41:36.827Z,87.16
2019-03-18T05:42:36.800Z,86.98
2019-03-18T05:43:36.769Z,87.26
2019-03-18T05:44:36.746Z,87.16
2019-03-18T05:45:36.712Z,87.26
2019-03-18T05:46:36.683Z,87.35
2019-03-18T05:47:39.496Z,88.02
2019-03-18T05:48:36.623Z,88.02
2019-03-18T05:49:36.594Z,88.11
2019-03-18T05:50:36.566Z,88.02
2019-03-18T05:51:37.291Z,87.92
2019-03-18T05:52:36.508Z,87.64
2019-03-18T05:53:36.479Z,87.92
2019-03-18T05:54:36.449Z,88.21
2019-03-18T05:55:36.422Z,87.92
2019-03-18T05:56:36.459Z,87.73
2019-03-18T05:57:36.363Z,87.54
2019-03-18T05:58:36.335Z,87.26
2019-03-18T05:59:36.306Z,87.64
2019-03-18T06:00:36.276Z,86.98
2019-03-18T06:01:36.248Z,88.11
2019-03-18T06:02:36.218Z,87.73
2019-03-18T06:03:36.194Z,87.64
2019-03-18T06:04:36.162Z,87.35
2019-03-18T06:05:36.131Z,88.78
2019-03-18T06:06:36.109Z,88.87
2019-03-18T06:07:36.074Z,88.87
2019-03-18T06:08:36.047Z,88.49
2019-03-18T06:09:36.016Z,88.11
2019-03-18T06:10:35.987Z,88.11
2019-03-18T06:11:35.958Z,88.40
2019-03-18T06:12:35.929Z,88.68
2019-03-18T06:13:35.918Z,87.92
2019-03-18T06:14:35.871Z,88.40
2019-03-18T06:15:35.842Z,88.87
2019-03-18T06:16:35.813Z,88.78
2019-03-18T06:17:35.784Z,88.49
2019-03-18T06:18:35.759Z,87.73
2019-03-18T06:19:35.728Z,88.30
2019-03-18T06:20:35.700Z,88.87
2019-03-18T06:21:35.670Z,88.49
2019-03-18T06:22:35.645Z,87.45
2019-03-18T06:23:35.623Z,87.16
2019-03-18T06:24:36.382Z,87.73
2019-03-18T06:25:35.554Z,88.02
2019-03-18T06:26:35.525Z,87.83
2019-03-18T06:27:35.544Z,87.73
2019-03-18T06:28:35.467Z,89.06
2019-03-18T06:29:35.438Z,88.21
2019-03-18T06:30:35.410Z,88.02
2019-03-18T06:31:35.380Z,88.78
2019-03-18T06:32:35.353Z,88.68
2019-03-18T06:33:35.323Z,88.96
2019-03-18T06:34:35.297Z,88.02
2019-03-18T06:35:35.267Z,88.68
2019-03-18T06:36:35.236Z,89.34
2019-03-18T06:37:35.207Z,89.34
2019-03-18T06:38:35.180Z,88.30
2019-03-18T06:39:35.150Z,88.59
2019-03-18T06:40:35.120Z,89.44
2019-03-18T06:41:35.096Z,88.96
2019-03-18T06:42:35.065Z,89.06
2019-03-18T06:43:35.042Z,90.39
2019-03-18T06:44:35.007Z,89.91
2019-03-18T06:45:35.731Z,89.53
2019-03-18T06:46:34.950Z,90.01
2019-03-18T06:47:34.923Z,90.53
2019-03-18T06:48:34.893Z,90.24
2019-03-18T06:49:34.866Z,90.24
2019-03-18T06:50:34.836Z,90.24
2019-03-18T06:51:36.308Z,91.66
2019-03-18T06:52:34.779Z,90.91
2019-03-18T06:53:34.754Z,91.28
2019-03-18T06:54:34.723Z,92.90
2019-03-18T06:55:34.694Z,92.42
2019-03-18T06:56:34.666Z,92.71
2019-03-18T06:57:34.638Z,92.33
2019-03-18T06:58:34.610Z,92.42
2019-03-18T06:59:34.582Z,92.14
2019-03-18T07:00:34.553Z,92.80
2019-03-18T07:01:34.526Z,92.42
2019-03-18T07:02:34.498Z,93.27
2019-03-18T07:03:34.469Z,92.90
2019-03-18T07:04:34.441Z,91.95
2019-03-18T07:05:34.412Z,91.28
2019-03-18T07:06:34.383Z,92.99
2019-03-18T07:07:34.359Z,92.71
2019-03-18T07:08:34.378Z,91.76
2019-03-18T07:09:34.299Z,92.52
2019-03-18T07:10:34.272Z,93.94
2019-03-18T07:11:34.248Z,92.80
2019-03-18T07:12:34.218Z,92.71
2019-03-18T07:13:34.188Z,93.84
2019-03-18T07:14:34.161Z,92.99
2019-03-18T07:15:34.133Z,94.70
2019-03-18T07:16:34.105Z,93.18
2019-03-18T07:17:34.080Z,92.80
2019-03-18T07:18:34.049Z,93.37
2019-03-18T07:19:34.021Z,94.89
2019-03-18T07:20:33.993Z,96.50
2019-03-18T07:21:33.964Z,96.69
2019-03-18T07:22:33.937Z,96.31
2019-03-18T07:23:33.909Z,96.03
2019-03-18T07:24:33.885Z,94.98
2019-03-18T07:25:33.852Z,95.26
2019-03-18T07:26:33.826Z,96.12
2019-03-18T07:27:33.797Z,95.26
2019-03-18T07:28:33.788Z,95.07
2019-03-18T07:29:33.740Z,96.22
2019-03-18T07:30:33.712Z,95.55
2019-03-18T07:31:33.684Z,96.59
2019-03-18T07:32:33.656Z,95.26
2019-03-18T07:33:33.628Z,95.36
2019-03-18T07:34:33.602Z,96.59
2019-03-18T07:35:33.571Z,95.65
2019-03-18T07:36:33.543Z,95.17
2019-03-18T07:37:33.516Z,94.32
2019-03-18T07:38:33.488Z,96.03
2019-03-18T07:39:33.460Z,95.55
2019-03-18T07:40:33.437Z,94.79
2019-03-18T07:41:33.403Z,95.84
2019-03-18T07:42:33.375Z,96.12
2019-03-18T07:43:33.348Z,95.36
2019-03-18T07:44:33.318Z,94.51
2019-03-18T07:45:33.290Z,96.59
2019-03-18T07:46:33.329Z,96.12
2019-03-18T07:47:33.235Z,94.89
2019-03-18T07:48:33.206Z,94.98
2019-03-18T07:49:33.178Z,95.69
2019-03-18T07:50:33.152Z,97.59
2019-03-18T07:51:33.123Z,96.17
2019-03-18T07:52:33.095Z,96.64
2019-03-18T07:53:33.066Z,95.31
2019-03-18T07:54:33.359Z,95.41
2019-03-18T07:55:33.012Z,95.50
2019-03-18T07:56:32.982Z,96.36
2019-03-18T07:57:32.957Z,94.93
2019-03-18T07:58:32.935Z,95.41
2019-03-18T07:59:32.901Z,95.79
2019-03-18T08:00:32.872Z,94.93
2019-03-18T08:01:32.845Z,94.84
2019-03-18T08:02:32.816Z,95.12
2019-03-18T08:03:32.793Z,94.74
2019-03-18T08:04:37.557Z,94.93
2019-03-18T08:05:32.741Z,94.65
2019-03-18T08:06:32.707Z,93.89
2019-03-18T08:07:32.678Z,94.56
2019-03-18T08:08:32.756Z,94.74
2019-03-18T08:09:32.624Z,94.27
2019-03-18T08:10:32.602Z,93.70
2019-03-18T08:11:32.569Z,93.70
2019-03-18T08:12:32.540Z,94.27
2019-03-18T08:13:32.515Z,93.80
2019-03-18T08:14:32.487Z,93.51
2019-03-18T08:15:32.460Z,93.51
2019-03-18T08:16:32.431Z,92.66
2019-03-18T08:17:32.402Z,93.04
2019-03-18T08:18:42.705Z,93.13
2019-03-18T08:19:32.347Z,93.56
2019-03-18T08:20:32.320Z,94.23
2019-03-18T08:21:32.292Z,92.76
2019-03-18T08:22:32.270Z,93.18
2019-03-18T08:23:32.237Z,92.85
2019-03-18T08:24:32.209Z,92.57
2019-03-18T08:25:32.183Z,92.76
2019-03-18T08:26:32.157Z,92.76
2019-03-18T08:27:32.130Z,92.38
2019-03-18T08:28:32.100Z,92.18
2019-03-18T08:29:32.074Z,92.94
2019-03-18T08:30:32.046Z,92.09
2019-03-18T08:31:32.019Z,92.09
2019-03-18T08:32:31.990Z,92.61
2019-03-18T08:33:31.978Z,93.56
2019-03-18T08:34:31.937Z,92.23
2019-03-18T08:35:31.909Z,92.42
2019-03-18T08:36:31.881Z,92.33
2019-03-18T08:37:31.857Z,92.52
2019-03-18T08:38:31.827Z,92.18
2019-03-18T08:39:31.804Z,90.90
2019-03-18T08:40:31.773Z,91.85
2019-03-18T08:41:31.745Z,90.62
2019-03-18T08:42:31.719Z,92.09
2019-03-18T08:43:31.691Z,90.38
2019-03-18T08:44:31.664Z,90.33
2019-03-18T08:45:31.637Z,89.67
2019-03-18T08:46:31.610Z,89.39
2019-03-18T08:47:31.583Z,89.48
2019-03-18T08:48:31.555Z,88.53
2019-03-18T08:49:31.527Z,89.76
2019-03-18T08:50:31.554Z,88.53
2019-03-18T08:51:31.474Z,88.53
2019-03-18T08:52:31.447Z,88.06
2019-03-18T08:53:31.419Z,88.62
2019-03-18T08:54:31.393Z,87.96
2019-03-18T08:55:31.373Z,89.29
2019-03-18T08:56:31.337Z,88.39
2019-03-18T08:57:31.311Z,88.53
2019-03-18T08:58:31.283Z,90.14
2019-03-18T08:59:31.256Z,89.58
2019-03-18T09:00:31.230Z,89.20
2019-03-18T09:01:31.202Z,89.48
2019-03-18T09:02:31.176Z,88.72
2019-03-18T09:03:31.151Z,89.29
2019-03-18T09:04:31.121Z,89.00
2019-03-18T09:05:31.094Z,88.81
2019-03-18T09:06:31.076Z,89.20
2019-03-18T09:07:31.040Z,89.29
2019-03-18T09:08:31.014Z,89.20
2019-03-18T09:09:30.986Z,89.67
2019-03-18T09:10:30.959Z,88.91
2019-03-18T09:11:30.933Z,88.15
2019-03-18T09:12:30.904Z,88.24
2019-03-18T09:13:32.069Z,87.87
2019-03-18T09:14:30.850Z,88.06
2019-03-18T09:15:30.823Z,88.72
2019-03-18T09:16:30.796Z,88.53
2019-03-18T09:17:30.769Z,88.15
2019-03-18T09:18:30.743Z,88.06
2019-03-18T09:19:30.714Z,87.87
2019-03-18T09:20:30.688Z,87.49
2019-03-18T09:21:30.659Z,87.87
2019-03-18T09:22:32.985Z,87.39
2019-03-18T09:23:30.605Z,86.91
2019-03-18T09:24:30.578Z,87.01
2019-03-18T09:25:30.551Z,87.11
2019-03-18T09:26:30.524Z,86.91
2019-03-18T09:27:30.499Z,87.30
2019-03-18T09:28:30.471Z,87.53
2019-03-18T09:29:30.443Z,87.24
2019-03-18T09:30:30.416Z,88.01
2019-03-18T09:31:30.422Z,88.62
2019-03-18T09:32:30.361Z,87.05
2019-03-18T09:33:30.335Z,87.15
2019-03-18T09:34:30.309Z,85.91
2019-03-18T09:35:30.283Z,85.91
2019-03-18T09:36:30.255Z,86.01
2019-03-18T09:37:30.228Z,87.24
2019-03-18T09:38:30.200Z,86.49
2019-03-18T09:39:30.175Z,87.62
2019-03-18T09:40:30.150Z,87.34
2019-03-18T09:41:30.126Z,86.58
2019-03-18T09:42:30.094Z,86.35
2019-03-18T09:43:30.068Z,86.30
2019-03-18T09:44:30.048Z,86.87
2019-03-18T09:45:30.016Z,85.91
2019-03-18T09:46:29.988Z,86.01
2019-03-18T09:47:29.962Z,87.05
2019-03-18T09:48:29.936Z,86.39
2019-03-18T09:49:30.663Z,85.35
2019-03-18T09:50:29.883Z,85.77
2019-03-18T09:51:29.858Z,86.01
2019-03-18T09:52:29.831Z,84.78
2019-03-18T09:53:29.803Z,84.49
2019-03-18T09:54:29.778Z,85.63
2019-03-18T09:55:29.752Z,84.68
2019-03-18T09:56:29.726Z,84.59
2019-03-18T09:57:29.700Z,84.53
2019-03-18T09:58:29.674Z,83.64
2019-03-18T09:59:29.647Z,83.83
2019-03-18T10:00:29.623Z,83.78
2019-03-18T10:01:29.595Z,85.30
2019-03-18T10:02:29.570Z,84.53
2019-03-18T10:03:29.544Z,83.30
2019-03-18T10:04:29.520Z,82.82
2019-03-18T10:05:30.294Z,83.11
2019-03-18T10:06:29.465Z,83.16
2019-03-18T10:07:29.440Z,82.78
2019-03-18T10:08:29.414Z,83.07
2019-03-18T10:09:29.389Z,82.88
2019-03-18T10:10:29.388Z,83.26
2019-03-18T10:11:29.338Z,82.97
2019-03-18T10:12:29.309Z,84.30
2019-03-18T10:13:29.283Z,84.49
2019-03-18T10:14:29.258Z,83.92
2019-03-18T10:15:29.232Z,84.01
2019-03-18T10:16:30.756Z,83.92
2019-03-18T10:17:29.179Z,83.83
2019-03-18T10:18:29.153Z,84.34
2019-03-18T10:19:33.682Z,83.83
2019-03-18T10:20:29.100Z,84.16
2019-03-18T10:21:29.077Z,84.25
2019-03-18T10:22:29.851Z,83.87
2019-03-18T10:23:29.023Z,83.01
2019-03-18T10:24:28.997Z,83.49
2019-03-18T10:25:28.971Z,84.06
2019-03-18T10:26:28.945Z,83.49
2019-03-18T10:27:28.920Z,83.59
2019-03-18T10:28:28.893Z,83.68
2019-03-18T10:29:28.868Z,83.11
2019-03-18T10:30:28.847Z,83.07
2019-03-18T10:31:28.819Z,82.73
2019-03-18T10:32:28.788Z,83.59
2019-03-18T10:33:28.763Z,83.11
2019-03-18T10:34:28.738Z,84.06
2019-03-18T10:35:28.712Z,84.16
2019-03-18T10:36:28.687Z,83.59
2019-03-18T10:37:28.658Z,83.20
2019-03-18T10:38:28.684Z,82.64
2019-03-18T10:39:28.618Z,83.49
2019-03-18T10:40:28.581Z,83.49
2019-03-18T10:41:28.560Z,83.20
2019-03-18T10:42:28.530Z,83.49
2019-03-18T10:43:28.508Z,83.49
2019-03-18T10:44:28.478Z,82.54
2019-03-18T10:45:28.457Z,83.11
2019-03-18T10:46:28.431Z,84.58
2019-03-18T10:47:28.402Z,84.01
2019-03-18T10:48:28.379Z,82.49
2019-03-18T10:49:28.351Z,83.44
2019-03-18T10:50:28.339Z,82.39
2019-03-18T10:51:28.301Z,82.01
2019-03-18T10:52:28.311Z,82.20
2019-03-18T10:53:28.280Z,81.78
2019-03-18T10:54:31.211Z,82.68
2019-03-18T10:55:28.200Z,82.87
2019-03-18T10:56:28.174Z,83.72
2019-03-18T10:57:28.148Z,82.45
2019-03-18T10:58:28.123Z,82.26
2019-03-18T10:59:28.098Z,82.92
2019-03-18T11:00:28.073Z,82.92
2019-03-18T11:01:28.053Z,82.45
2019-03-18T11:02:28.022Z,81.97
2019-03-18T11:03:28.004Z,82.82
2019-03-18T11:04:27.972Z,82.54
2019-03-18T11:05:27.948Z,82.35
2019-03-18T11:06:27.923Z,82.64
2019-03-18T11:07:27.898Z,83.30
2019-03-18T11:08:27.874Z,83.97
2019-03-18T11:09:28.596Z,83.30
2019-03-18T11:10:27.821Z,83.68
2019-03-18T11:11:27.796Z,83.11
2019-03-18T11:12:27.770Z,82.64
2019-03-18T11:13:27.744Z,83.11
2019-03-18T11:14:27.719Z,83.11
2019-03-18T11:15:27.694Z,83.59
2019-03-18T11:16:27.667Z,82.68
2019-03-18T11:17:27.645Z,84.10
2019-03-18T11:18:27.618Z,83.06
2019-03-18T11:19:27.593Z,81.82
2019-03-18T11:20:27.567Z,82.20
2019-03-18T11:21:27.542Z,81.54
2019-03-18T11:22:27.517Z,82.01
2019-03-18T11:23:27.492Z,82.77
2019-03-18T11:24:27.467Z,82.29
2019-03-18T11:25:27.441Z,83.82
2019-03-18T11:26:27.431Z,83.25
2019-03-18T11:27:27.396Z,82.39
2019-03-18T11:28:27.369Z,83.06
2019-03-18T11:29:27.345Z,82.49
2019-03-18T11:30:27.319Z,81.92
2019-03-18T11:31:27.293Z,82.49
2019-03-18T11:32:27.271Z,82.62
2019-03-18T11:33:28.496Z,82.29
2019-03-18T11:34:27.221Z,82.01
2019-03-18T11:35:27.196Z,82.10
2019-03-18T11:36:27.171Z,81.92
2019-03-18T11:37:27.147Z,81.06
2019-03-18T11:38:27.124Z,81.12
2019-03-18T11:39:27.099Z,81.02
2019-03-18T11:40:27.074Z,82.10
2019-03-18T11:41:27.058Z,82.58
2019-03-18T11:42:27.026Z,83.25
2019-03-18T11:43:27.005Z,81.92
2019-03-18T11:44:26.978Z,82.49
2019-03-18T11:45:26.956Z,82.34
2019-03-18T11:46:26.928Z,83.10
2019-03-18T11:47:26.904Z,82.81
2019-03-18T11:48:26.879Z,82.53
2019-03-18T11:49:38.787Z,80.96
2019-03-18T11:50:26.831Z,80.68
2019-03-18T11:51:26.807Z,80.21
2019-03-18T11:52:26.787Z,79.83
2019-03-18T11:53:26.758Z,80.21
2019-03-18T11:54:26.859Z,80.68
2019-03-18T11:55:26.710Z,82.77
2019-03-18T11:56:26.685Z,80.96
2019-03-18T11:57:26.665Z,80.96
2019-03-18T11:58:26.652Z,81.25
2019-03-18T11:59:26.614Z,82.15
2019-03-18T12:00:26.592Z,81.25
2019-03-18T12:01:26.564Z,80.21
2019-03-18T12:02:27.897Z,81.01
2019-03-18T12:03:26.518Z,81.29
2019-03-18T12:04:26.493Z,82.62
2019-03-18T12:05:26.468Z,81.67
2019-03-18T12:06:26.443Z,80.53
2019-03-18T12:07:26.424Z,80.44
2019-03-18T12:08:27.896Z,80.34
2019-03-18T12:09:26.375Z,80.68
2019-03-18T12:10:26.365Z,80.77
2019-03-18T12:11:26.324Z,80.21
2019-03-18T12:12:26.299Z,80.26
2019-03-18T12:13:26.276Z,80.83
2019-03-18T12:14:28.602Z,80.74
2019-03-18T12:15:26.233Z,81.54
2019-03-18T12:16:26.203Z,80.87
2019-03-18T12:17:28.411Z,81.16
2019-03-18T12:18:26.155Z,80.96
2019-03-18T12:19:26.135Z,80.68
2019-03-18T12:20:27.606Z,81.35
2019-03-18T12:21:26.084Z,81.35
2019-03-18T12:22:26.057Z,81.54
2019-03-18T12:23:26.033Z,82.29
2019-03-18T12:24:26.007Z,81.92
2019-03-18T12:25:25.981Z,82.62
2019-03-18T12:26:28.962Z,83.00
2019-03-18T12:27:25.933Z,81.58
2019-03-18T12:28:25.910Z,81.48
2019-03-18T12:29:25.888Z,81.96
2019-03-18T12:30:25.872Z,80.82
2019-03-18T12:31:25.834Z,80.44
2019-03-18T12:32:25.810Z,81.38
2019-03-18T12:33:25.786Z,81.29
2019-03-18T12:34:25.762Z,80.05
2019-03-18T12:35:25.738Z,81.20
2019-03-18T12:36:25.714Z,81.58
2019-03-18T12:37:25.690Z,81.01
2019-03-18T12:38:25.665Z,80.91
2019-03-18T12:39:25.641Z,81.48
2019-03-18T12:40:25.616Z,80.34
2019-03-18T12:41:25.590Z,79.68
2019-03-18T12:42:25.567Z,79.01
2019-03-18T12:43:25.546Z,79.49
2019-03-18T12:44:25.521Z,78.88
2019-03-18T12:45:25.495Z,79.25
2019-03-18T12:46:25.471Z,79.63
2019-03-18T12:47:25.446Z,79.25
2019-03-18T12:48:25.423Z,79.25
2019-03-18T12:49:25.419Z,80.02
2019-03-18T12:50:43.161Z,80.02
2019-03-18T12:51:25.351Z,80.72
2019-03-18T12:52:25.326Z,81.10